sensor_id;sensor_type;location;lat;lon;timestamp;temperature;humidity
25716;DHT22;13573;50.936;4.328;2022-08-18T00:02:23;19.20;99.90
25716;DHT22;13573;50.936;4.328;2022-08-18T00:04:52;19.40;99.90
25716;DHT22;13573;50.936;4.328;2022-08-18T00:07:26;19.30;99.90
25716;DHT22;13573;50.936;4.328;2022-08-18T00:09:51;19.50;99.90
25716;DHT22;13573;50.936;4.328;2022-08-18T00:12:23;19.30;99.90
25716;DHT22;13573;50.936;4.328;2022-08-18T00:14:50;19.30;99.90
25716;DHT22;13573;50.936;4.328;2022-08-18T00:17:18;19.30;99.90
25716;DHT22;13573;50.936;4.328;2022-08-18T00:19:45;19.40;99.90
25716;DHT22;13573;50.936;4.328;2022-08-18T00:22:15;19.30;99.90
25716;DHT22;13573;50.936;4.328;2022-08-18T00:24:43;19.50;99.90
25716;DHT22;13573;50.936;4.328;2022-08-18T00:27:10;19.10;99.90
25716;DHT22;13573;50.936;4.328;2022-08-18T00:29:37;18.90;99.90
25716;DHT22;13573;50.936;4.328;2022-08-18T00:32:14;18.80;99.90
25716;DHT22;13573;50.936;4.328;2022-08-18T00:34:40;18.50;99.90
25716;DHT22;13573;50.936;4.328;2022-08-18T00:37:07;18.60;99.90
25716;DHT22;13573;50.936;4.328;2022-08-18T00:39:34;18.70;99.90
25716;DHT22;13573;50.936;4.328;2022-08-18T00:42:13;19.10;99.90
25716;DHT22;13573;50.936;4.328;2022-08-18T00:44:40;19.20;99.90
25716;DHT22;13573;50.936;4.328;2022-08-18T00:47:07;19.10;99.90
25716;DHT22;13573;50.936;4.328;2022-08-18T00:49:36;19.30;99.90
25716;DHT22;13573;50.936;4.328;2022-08-18T00:52:04;19.30;99.90
25716;DHT22;13573;50.936;4.328;2022-08-18T00:54:32;19.20;99.90
25716;DHT22;13573;50.936;4.328;2022-08-18T00:57:03;19.30;99.90
25716;DHT22;13573;50.936;4.328;2022-08-18T00:59:46;19.30;99.90
25716;DHT22;13573;50.936;4.328;2022-08-18T01:02:21;19.30;99.90
25716;DHT22;13573;50.936;4.328;2022-08-18T01:04:55;18.70;99.90
25716;DHT22;13573;50.936;4.328;2022-08-18T01:07:39;19.10;99.90
25716;DHT22;13573;50.936;4.328;2022-08-18T01:10:08;19.10;99.90
25716;DHT22;13573;50.936;4.328;2022-08-18T01:12:34;19.00;99.90
25716;DHT22;13573;50.936;4.328;2022-08-18T01:15:02;18.90;99.90
25716;DHT22;13573;50.936;4.328;2022-08-18T01:17:30;19.00;99.90
25716;DHT22;13573;50.936;4.328;2022-08-18T01:20:03;18.70;99.90
25716;DHT22;13573;50.936;4.328;2022-08-18T01:23:01;18.80;99.90
25716;DHT22;13573;50.936;4.328;2022-08-18T01:25:30;18.70;99.90
25716;DHT22;13573;50.936;4.328;2022-08-18T01:28:05;18.90;99.90
25716;DHT22;13573;50.936;4.328;2022-08-18T01:30:44;18.90;99.90
25716;DHT22;13573;50.936;4.328;2022-08-18T01:33:02;18.90;99.90
25716;DHT22;13573;50.936;4.328;2022-08-18T01:35:31;19.20;99.90
25716;DHT22;13573;50.936;4.328;2022-08-18T01:38:00;19.40;99.90
25716;DHT22;13573;50.936;4.328;2022-08-18T01:40:27;19.30;99.90
25716;DHT22;13573;50.936;4.328;2022-08-18T01:42:53;19.50;99.90
25716;DHT22;13573;50.936;4.328;2022-08-18T01:45:21;20.10;99.90
25716;DHT22;13573;50.936;4.328;2022-08-18T01:47:48;19.90;99.90
25716;DHT22;13573;50.936;4.328;2022-08-18T01:50:16;19.70;99.90
25716;DHT22;13573;50.936;4.328;2022-08-18T01:52:43;19.40;99.90
25716;DHT22;13573;50.936;4.328;2022-08-18T01:55:10;19.50;99.90
25716;DHT22;13573;50.936;4.328;2022-08-18T01:57:38;19.40;99.90
25716;DHT22;13573;50.936;4.328;2022-08-18T02:00:13;19.30;99.90
25716;DHT22;13573;50.936;4.328;2022-08-18T02:02:40;19.10;99.90
25716;DHT22;13573;50.936;4.328;2022-08-18T02:05:12;18.90;99.90
25716;DHT22;13573;50.936;4.328;2022-08-18T02:07:40;18.80;99.90
25716;DHT22;13573;50.936;4.328;2022-08-18T02:10:08;18.80;99.90
25716;DHT22;13573;50.936;4.328;2022-08-18T02:12:38;18.80;99.90
25716;DHT22;13573;50.936;4.328;2022-08-18T02:15:05;18.80;99.90
25716;DHT22;13573;50.936;4.328;2022-08-18T02:17:41;19.10;99.90
25716;DHT22;13573;50.936;4.328;2022-08-18T02:20:10;18.80;99.90
25716;DHT22;13573;50.936;4.328;2022-08-18T02:22:38;18.70;99.90
25716;DHT22;13573;50.936;4.328;2022-08-18T02:25:05;18.70;99.90
25716;DHT22;13573;50.936;4.328;2022-08-18T02:27:32;18.70;99.90
25716;DHT22;13573;50.936;4.328;2022-08-18T02:30:01;19.00;99.90
25716;DHT22;13573;50.936;4.328;2022-08-18T02:32:29;18.80;99.90
25716;DHT22;13573;50.936;4.328;2022-08-18T02:34:56;18.90;99.90
25716;DHT22;13573;50.936;4.328;2022-08-18T02:37:24;18.90;99.90
25716;DHT22;13573;50.936;4.328;2022-08-18T02:39:51;18.80;99.90
25716;DHT22;13573;50.936;4.328;2022-08-18T02:42:17;18.80;99.90
25716;DHT22;13573;50.936;4.328;2022-08-18T02:44:44;18.00;99.90
25716;DHT22;13573;50.936;4.328;2022-08-18T02:47:12;18.40;99.90
25716;DHT22;13573;50.936;4.328;2022-08-18T02:49:39;18.70;99.90
25716;DHT22;13573;50.936;4.328;2022-08-18T02:52:06;18.80;99.90
25716;DHT22;13573;50.936;4.328;2022-08-18T02:54:32;18.60;99.90
25716;DHT22;13573;50.936;4.328;2022-08-18T02:57:06;19.00;99.90
25716;DHT22;13573;50.936;4.328;2022-08-18T02:59:33;18.80;99.90
25716;DHT22;13573;50.936;4.328;2022-08-18T03:02:00;18.90;99.90
25716;DHT22;13573;50.936;4.328;2022-08-18T03:04:28;18.70;99.90
25716;DHT22;13573;50.936;4.328;2022-08-18T03:06:59;18.70;99.90
25716;DHT22;13573;50.936;4.328;2022-08-18T03:09:26;18.60;99.90
25716;DHT22;13573;50.936;4.328;2022-08-18T03:11:54;19.80;99.90
25716;DHT22;13573;50.936;4.328;2022-08-18T03:14:21;18.70;99.90
25716;DHT22;13573;50.936;4.328;2022-08-18T03:16:48;18.30;99.90
25716;DHT22;13573;50.936;4.328;2022-08-18T03:19:15;18.20;99.90
25716;DHT22;13573;50.936;4.328;2022-08-18T03:21:44;18.60;99.90
25716;DHT22;13573;50.936;4.328;2022-08-18T03:24:12;18.40;99.90
25716;DHT22;13573;50.936;4.328;2022-08-18T03:26:42;18.70;99.90
25716;DHT22;13573;50.936;4.328;2022-08-18T03:29:10;18.60;99.90
25716;DHT22;13573;50.936;4.328;2022-08-18T03:31:38;18.50;99.90
25716;DHT22;13573;50.936;4.328;2022-08-18T03:34:06;18.40;99.90
25716;DHT22;13573;50.936;4.328;2022-08-18T03:36:35;18.60;99.90
25716;DHT22;13573;50.936;4.328;2022-08-18T03:39:05;18.50;99.90
25716;DHT22;13573;50.936;4.328;2022-08-18T03:41:33;18.30;99.90
25716;DHT22;13573;50.936;4.328;2022-08-18T03:44:02;17.30;99.90
25716;DHT22;13573;50.936;4.328;2022-08-18T03:46:28;17.90;99.90
25716;DHT22;13573;50.936;4.328;2022-08-18T03:48:56;18.80;99.90
25716;DHT22;13573;50.936;4.328;2022-08-18T03:51:26;18.80;99.90
25716;DHT22;13573;50.936;4.328;2022-08-18T03:53:56;19.30;99.90
25716;DHT22;13573;50.936;4.328;2022-08-18T03:56:27;19.30;99.90
25716;DHT22;13573;50.936;4.328;2022-08-18T03:58:58;19.20;99.90
25716;DHT22;13573;50.936;4.328;2022-08-18T04:01:29;19.20;99.90
25716;DHT22;13573;50.936;4.328;2022-08-18T04:04:00;19.40;99.90
25716;DHT22;13573;50.936;4.328;2022-08-18T04:06:32;19.40;99.90
25716;DHT22;13573;50.936;4.328;2022-08-18T04:09:02;19.10;99.90
25716;DHT22;13573;50.936;4.328;2022-08-18T04:11:32;19.00;99.90
25716;DHT22;13573;50.936;4.328;2022-08-18T04:13:59;18.80;99.90
25716;DHT22;13573;50.936;4.328;2022-08-18T04:16:28;18.70;99.90
25716;DHT22;13573;50.936;4.328;2022-08-18T04:18:56;18.50;99.90
25716;DHT22;13573;50.936;4.328;2022-08-18T04:21:25;18.40;99.90
25716;DHT22;13573;50.936;4.328;2022-08-18T04:23:51;18.40;99.90
25716;DHT22;13573;50.936;4.328;2022-08-18T04:26:19;18.70;99.90
25716;DHT22;13573;50.936;4.328;2022-08-18T04:28:46;18.60;99.90
25716;DHT22;13573;50.936;4.328;2022-08-18T04:31:14;18.40;99.90
25716;DHT22;13573;50.936;4.328;2022-08-18T04:33:41;18.40;99.90
25716;DHT22;13573;50.936;4.328;2022-08-18T04:36:10;18.50;99.90
25716;DHT22;13573;50.936;4.328;2022-08-18T04:38:38;18.60;99.90
25716;DHT22;13573;50.936;4.328;2022-08-18T04:43:35;18.50;99.90
25716;DHT22;13573;50.936;4.328;2022-08-18T04:46:02;18.20;99.90
25716;DHT22;13573;50.936;4.328;2022-08-18T04:48:30;18.40;99.90
25716;DHT22;13573;50.936;4.328;2022-08-18T04:51:08;18.80;99.90
25716;DHT22;13573;50.936;4.328;2022-08-18T04:53:36;18.70;99.90
25716;DHT22;13573;50.936;4.328;2022-08-18T04:56:14;18.60;99.90
25716;DHT22;13573;50.936;4.328;2022-08-18T04:58:42;17.90;99.90
25716;DHT22;13573;50.936;4.328;2022-08-18T05:01:09;18.10;99.90
25716;DHT22;13573;50.936;4.328;2022-08-18T05:03:36;18.20;99.90
25716;DHT22;13573;50.936;4.328;2022-08-18T05:06:04;17.70;99.90
25716;DHT22;13573;50.936;4.328;2022-08-18T05:08:32;17.90;99.90
25716;DHT22;13573;50.936;4.328;2022-08-18T05:10:58;18.10;99.90
25716;DHT22;13573;50.936;4.328;2022-08-18T05:13:25;18.00;99.90
25716;DHT22;13573;50.936;4.328;2022-08-18T05:15:54;17.80;99.90
25716;DHT22;13573;50.936;4.328;2022-08-18T05:18:24;18.40;99.90
25716;DHT22;13573;50.936;4.328;2022-08-18T05:20:52;18.50;99.90
25716;DHT22;13573;50.936;4.328;2022-08-18T05:23:19;18.40;99.90
25716;DHT22;13573;50.936;4.328;2022-08-18T05:25:46;18.30;99.90
25716;DHT22;13573;50.936;4.328;2022-08-18T05:28:13;18.70;99.90
25716;DHT22;13573;50.936;4.328;2022-08-18T05:30:41;18.50;99.90
25716;DHT22;13573;50.936;4.328;2022-08-18T05:33:09;18.40;99.90
25716;DHT22;13573;50.936;4.328;2022-08-18T05:35:40;18.00;99.90
25716;DHT22;13573;50.936;4.328;2022-08-18T05:40:55;18.40;99.90
25716;DHT22;13573;50.936;4.328;2022-08-18T05:43:18;18.20;99.90
25716;DHT22;13573;50.936;4.328;2022-08-18T05:45:47;18.40;99.90
25716;DHT22;13573;50.936;4.328;2022-08-18T05:48:14;18.40;99.90
25716;DHT22;13573;50.936;4.328;2022-08-18T05:50:41;17.90;99.90
25716;DHT22;13573;50.936;4.328;2022-08-18T05:53:13;18.30;99.90
25716;DHT22;13573;50.936;4.328;2022-08-18T05:55:46;18.30;99.90
25716;DHT22;13573;50.936;4.328;2022-08-18T05:58:21;18.20;99.90
25716;DHT22;13573;50.936;4.328;2022-08-18T06:00:54;18.90;99.90
25716;DHT22;13573;50.936;4.328;2022-08-18T06:03:26;19.00;99.90
25716;DHT22;13573;50.936;4.328;2022-08-18T06:05:56;18.90;99.90
25716;DHT22;13573;50.936;4.328;2022-08-18T06:10:56;19.40;99.90
25716;DHT22;13573;50.936;4.328;2022-08-18T06:13:23;19.80;99.90
25716;DHT22;13573;50.936;4.328;2022-08-18T06:18:47;20.50;99.90
25716;DHT22;13573;50.936;4.328;2022-08-18T06:24:30;22.00;99.90
25716;DHT22;13573;50.936;4.328;2022-08-18T06:27:24;23.50;99.90
25716;DHT22;13573;50.936;4.328;2022-08-18T06:30:00;22.40;99.90
25716;DHT22;13573;50.936;4.328;2022-08-18T06:32:54;21.90;99.90
25716;DHT22;13573;50.936;4.328;2022-08-18T06:35:34;23.80;99.90
25716;DHT22;13573;50.936;4.328;2022-08-18T06:40:48;26.60;99.90
25716;DHT22;13573;50.936;4.328;2022-08-18T06:43:16;26.80;99.90
25716;DHT22;13573;50.936;4.328;2022-08-18T06:45:45;27.00;99.90
25716;DHT22;13573;50.936;4.328;2022-08-18T06:48:21;27.00;99.90
25716;DHT22;13573;50.936;4.328;2022-08-18T06:50:49;27.80;99.90
25716;DHT22;13573;50.936;4.328;2022-08-18T06:53:17;28.00;99.90
25716;DHT22;13573;50.936;4.328;2022-08-18T06:55:46;27.60;99.90
25716;DHT22;13573;50.936;4.328;2022-08-18T06:58:30;29.20;99.90
25716;DHT22;13573;50.936;4.328;2022-08-18T07:00:59;29.20;99.90
25716;DHT22;13573;50.936;4.328;2022-08-18T07:06:34;27.20;99.90
25716;DHT22;13573;50.936;4.328;2022-08-18T07:09:16;28.20;99.90
25716;DHT22;13573;50.936;4.328;2022-08-18T07:11:36;26.50;99.90
25716;DHT22;13573;50.936;4.328;2022-08-18T07:14:12;28.50;99.90
25716;DHT22;13573;50.936;4.328;2022-08-18T07:16:39;28.90;99.90
25716;DHT22;13573;50.936;4.328;2022-08-18T07:19:11;28.50;99.90
25716;DHT22;13573;50.936;4.328;2022-08-18T07:21:41;28.70;99.90
25716;DHT22;13573;50.936;4.328;2022-08-18T07:24:12;28.10;99.90
25716;DHT22;13573;50.936;4.328;2022-08-18T07:29:17;28.10;99.90
25716;DHT22;13573;50.936;4.328;2022-08-18T07:31:48;28.00;99.90
25716;DHT22;13573;50.936;4.328;2022-08-18T07:34:31;27.70;99.90
25716;DHT22;13573;50.936;4.328;2022-08-18T07:37:03;28.10;99.90
25716;DHT22;13573;50.936;4.328;2022-08-18T07:39:39;29.40;99.90
25716;DHT22;13573;50.936;4.328;2022-08-18T07:42:30;29.40;99.90
25716;DHT22;13573;50.936;4.328;2022-08-18T07:44:59;29.00;99.90
25716;DHT22;13573;50.936;4.328;2022-08-18T07:47:42;29.10;99.90
25716;DHT22;13573;50.936;4.328;2022-08-18T07:50:10;28.30;99.90
25716;DHT22;13573;50.936;4.328;2022-08-18T07:52:42;29.30;99.90
25716;DHT22;13573;50.936;4.328;2022-08-18T07:55:21;29.30;99.90
25716;DHT22;13573;50.936;4.328;2022-08-18T07:57:59;26.70;99.90
25716;DHT22;13573;50.936;4.328;2022-08-18T08:00:30;26.50;99.90
25716;DHT22;13573;50.936;4.328;2022-08-18T08:08:44;29.60;99.90
25716;DHT22;13573;50.936;4.328;2022-08-18T08:11:17;29.20;99.90
25716;DHT22;13573;50.936;4.328;2022-08-18T08:14:09;30.20;99.90
25716;DHT22;13573;50.936;4.328;2022-08-18T08:16:44;31.50;99.90
25716;DHT22;13573;50.936;4.328;2022-08-18T08:19:36;31.10;99.90
25716;DHT22;13573;50.936;4.328;2022-08-18T08:22:06;30.50;99.90
25716;DHT22;13573;50.936;4.328;2022-08-18T08:24:55;31.00;99.90
25716;DHT22;13573;50.936;4.328;2022-08-18T08:27:32;32.60;99.90
25716;DHT22;13573;50.936;4.328;2022-08-18T08:30:15;33.00;99.90
25716;DHT22;13573;50.936;4.328;2022-08-18T08:32:56;33.60;99.90
25716;DHT22;13573;50.936;4.328;2022-08-18T08:35:38;33.60;99.90
25716;DHT22;13573;50.936;4.328;2022-08-18T08:38:11;33.30;99.90
25716;DHT22;13573;50.936;4.328;2022-08-18T08:40:44;33.30;99.90
25716;DHT22;13573;50.936;4.328;2022-08-18T08:43:14;31.30;99.90
25716;DHT22;13573;50.936;4.328;2022-08-18T08:45:46;33.00;99.90
25716;DHT22;13573;50.936;4.328;2022-08-18T08:48:16;31.90;99.90
25716;DHT22;13573;50.936;4.328;2022-08-18T08:50:48;31.70;99.90
25716;DHT22;13573;50.936;4.328;2022-08-18T08:53:31;31.60;99.90
25716;DHT22;13573;50.936;4.328;2022-08-18T08:56:05;30.50;99.90
25716;DHT22;13573;50.936;4.328;2022-08-18T08:58:39;29.40;99.90
25716;DHT22;13573;50.936;4.328;2022-08-18T09:01:09;31.60;99.90
25716;DHT22;13573;50.936;4.328;2022-08-18T09:03:46;32.00;99.90
25716;DHT22;13573;50.936;4.328;2022-08-18T09:09:18;32.60;99.90
25716;DHT22;13573;50.936;4.328;2022-08-18T09:11:50;33.30;99.90
25716;DHT22;13573;50.936;4.328;2022-08-18T09:14:22;31.90;99.90
25716;DHT22;13573;50.936;4.328;2022-08-18T09:16:57;31.20;99.90
25716;DHT22;13573;50.936;4.328;2022-08-18T09:22:15;30.00;99.90
25716;DHT22;13573;50.936;4.328;2022-08-18T09:24:47;30.30;99.90
25716;DHT22;13573;50.936;4.328;2022-08-18T09:27:29;29.40;99.90
25716;DHT22;13573;50.936;4.328;2022-08-18T09:32:37;31.10;99.90
25716;DHT22;13573;50.936;4.328;2022-08-18T09:35:20;32.60;99.90
25716;DHT22;13573;50.936;4.328;2022-08-18T09:37:53;33.30;99.90
25716;DHT22;13573;50.936;4.328;2022-08-18T09:40:26;33.10;99.90
25716;DHT22;13573;50.936;4.328;2022-08-18T09:43:10;34.10;99.90
25716;DHT22;13573;50.936;4.328;2022-08-18T09:45:50;33.20;99.90
25716;DHT22;13573;50.936;4.328;2022-08-18T09:48:22;31.80;99.90
25716;DHT22;13573;50.936;4.328;2022-08-18T09:54:05;30.00;99.90
25716;DHT22;13573;50.936;4.328;2022-08-18T09:57:04;30.70;99.90
25716;DHT22;13573;50.936;4.328;2022-08-18T09:59:50;30.30;99.90
25716;DHT22;13573;50.936;4.328;2022-08-18T10:05:26;31.40;99.90
25716;DHT22;13573;50.936;4.328;2022-08-18T10:08:23;32.40;99.90
25716;DHT22;13573;50.936;4.328;2022-08-18T10:10:45;33.00;99.90
25716;DHT22;13573;50.936;4.328;2022-08-18T10:13:23;34.60;99.90
25716;DHT22;13573;50.936;4.328;2022-08-18T10:16:11;34.70;99.90
25716;DHT22;13573;50.936;4.328;2022-08-18T10:19:14;34.60;99.90
25716;DHT22;13573;50.936;4.328;2022-08-18T10:22:07;33.20;99.90
25716;DHT22;13573;50.936;4.328;2022-08-18T10:24:37;32.90;99.90
25716;DHT22;13573;50.936;4.328;2022-08-18T10:27:09;33.00;99.90
25716;DHT22;13573;50.936;4.328;2022-08-18T10:29:45;33.00;99.90
25716;DHT22;13573;50.936;4.328;2022-08-18T10:32:22;32.60;99.90
25716;DHT22;13573;50.936;4.328;2022-08-18T10:34:51;30.10;99.90
25716;DHT22;13573;50.936;4.328;2022-08-18T10:37:29;31.40;99.90
25716;DHT22;13573;50.936;4.328;2022-08-18T10:39:59;31.80;99.90
25716;DHT22;13573;50.936;4.328;2022-08-18T10:42:34;32.30;99.90
25716;DHT22;13573;50.936;4.328;2022-08-18T10:45:11;33.30;99.90
25716;DHT22;13573;50.936;4.328;2022-08-18T10:52:57;35.10;98.60
25716;DHT22;13573;50.936;4.328;2022-08-18T10:55:42;35.20;97.10
25716;DHT22;13573;50.936;4.328;2022-08-18T10:58:14;36.10;96.50
25716;DHT22;13573;50.936;4.328;2022-08-18T11:04:21;34.80;98.30
25716;DHT22;13573;50.936;4.328;2022-08-18T11:06:41;33.60;98.90
25716;DHT22;13573;50.936;4.328;2022-08-18T11:09:09;32.10;99.10
25716;DHT22;13573;50.936;4.328;2022-08-18T11:11:40;31.80;99.90
25716;DHT22;13573;50.936;4.328;2022-08-18T11:14:35;30.70;99.90
25716;DHT22;13573;50.936;4.328;2022-08-18T11:19:39;31.30;99.90
25716;DHT22;13573;50.936;4.328;2022-08-18T11:24:43;32.80;99.20
25716;DHT22;13573;50.936;4.328;2022-08-18T11:27:19;34.70;97.90
25716;DHT22;13573;50.936;4.328;2022-08-18T11:29:47;35.60;96.40
25716;DHT22;13573;50.936;4.328;2022-08-18T11:32:21;36.50;95.10
25716;DHT22;13573;50.936;4.328;2022-08-18T11:34:51;36.30;94.90
25716;DHT22;13573;50.936;4.328;2022-08-18T11:39:49;37.40;95.10
25716;DHT22;13573;50.936;4.328;2022-08-18T11:42:18;36.50;95.00
25716;DHT22;13573;50.936;4.328;2022-08-18T11:44:45;37.90;94.80
25716;DHT22;13573;50.936;4.328;2022-08-18T11:47:16;37.50;94.50
25716;DHT22;13573;50.936;4.328;2022-08-18T11:49:53;37.10;94.60
25716;DHT22;13573;50.936;4.328;2022-08-18T11:52:25;36.30;93.80
25716;DHT22;13573;50.936;4.328;2022-08-18T11:54:59;36.30;93.40
25716;DHT22;13573;50.936;4.328;2022-08-18T11:57:30;35.30;94.50
25716;DHT22;13573;50.936;4.328;2022-08-18T11:59:57;34.40;96.60
25716;DHT22;13573;50.936;4.328;2022-08-18T12:02:25;33.20;97.30
25716;DHT22;13573;50.936;4.328;2022-08-18T12:04:54;34.00;97.60
25716;DHT22;13573;50.936;4.328;2022-08-18T12:07:31;32.90;97.60
25716;DHT22;13573;50.936;4.328;2022-08-18T12:12:49;33.70;96.60
25716;DHT22;13573;50.936;4.328;2022-08-18T12:15:24;32.40;98.30
25716;DHT22;13573;50.936;4.328;2022-08-18T12:17:51;33.40;97.90
25716;DHT22;13573;50.936;4.328;2022-08-18T12:20:19;33.50;96.30
25716;DHT22;13573;50.936;4.328;2022-08-18T12:22:47;33.40;96.30
25716;DHT22;13573;50.936;4.328;2022-08-18T12:25:17;33.50;97.30
25716;DHT22;13573;50.936;4.328;2022-08-18T12:27:44;32.60;98.10
25716;DHT22;13573;50.936;4.328;2022-08-18T12:30:11;32.90;98.40
25716;DHT22;13573;50.936;4.328;2022-08-18T12:32:37;33.00;97.00
25716;DHT22;13573;50.936;4.328;2022-08-18T12:35:06;32.10;99.60
25716;DHT22;13573;50.936;4.328;2022-08-18T12:37:34;32.20;99.90
25716;DHT22;13573;50.936;4.328;2022-08-18T12:40:02;32.60;99.40
25716;DHT22;13573;50.936;4.328;2022-08-18T12:42:31;32.70;97.60
25716;DHT22;13573;50.936;4.328;2022-08-18T12:44:58;30.90;99.90
25716;DHT22;13573;50.936;4.328;2022-08-18T12:47:25;31.70;99.90
25716;DHT22;13573;50.936;4.328;2022-08-18T12:49:52;31.70;99.70
25716;DHT22;13573;50.936;4.328;2022-08-18T12:52:19;31.50;99.90
25716;DHT22;13573;50.936;4.328;2022-08-18T12:54:46;31.50;99.90
25716;DHT22;13573;50.936;4.328;2022-08-18T12:57:24;31.50;98.60
25716;DHT22;13573;50.936;4.328;2022-08-18T12:59:47;32.60;99.70
25716;DHT22;13573;50.936;4.328;2022-08-18T13:02:14;32.50;97.80
25716;DHT22;13573;50.936;4.328;2022-08-18T13:04:42;33.50;98.40
25716;DHT22;13573;50.936;4.328;2022-08-18T13:07:11;32.80;96.60
25716;DHT22;13573;50.936;4.328;2022-08-18T13:09:38;34.80;95.90
25716;DHT22;13573;50.936;4.328;2022-08-18T13:12:06;35.10;95.10
25716;DHT22;13573;50.936;4.328;2022-08-18T13:14:34;34.70;95.20
25716;DHT22;13573;50.936;4.328;2022-08-18T13:17:01;35.30;94.80
25716;DHT22;13573;50.936;4.328;2022-08-18T13:19:28;35.70;94.80
25716;DHT22;13573;50.936;4.328;2022-08-18T13:21:55;35.90;94.20
25716;DHT22;13573;50.936;4.328;2022-08-18T13:24:22;36.30;93.60
25716;DHT22;13573;50.936;4.328;2022-08-18T13:26:49;36.60;93.50
25716;DHT22;13573;50.936;4.328;2022-08-18T13:29:16;35.90;93.00
25716;DHT22;13573;50.936;4.328;2022-08-18T13:31:44;35.90;93.30
25716;DHT22;13573;50.936;4.328;2022-08-18T13:34:12;35.80;94.60
25716;DHT22;13573;50.936;4.328;2022-08-18T13:36:39;35.80;93.60
25716;DHT22;13573;50.936;4.328;2022-08-18T13:39:14;35.70;93.80
25716;DHT22;13573;50.936;4.328;2022-08-18T13:41:42;35.60;93.90
25716;DHT22;13573;50.936;4.328;2022-08-18T13:44:10;34.10;96.30
25716;DHT22;13573;50.936;4.328;2022-08-18T13:46:39;34.60;95.10
25716;DHT22;13573;50.936;4.328;2022-08-18T13:49:15;36.90;94.20
25716;DHT22;13573;50.936;4.328;2022-08-18T13:51:43;37.70;93.30
25716;DHT22;13573;50.936;4.328;2022-08-18T13:54:17;37.30;93.10
25716;DHT22;13573;50.936;4.328;2022-08-18T13:56:44;36.80;93.30
25716;DHT22;13573;50.936;4.328;2022-08-18T13:59:11;37.60;92.90
25716;DHT22;13573;50.936;4.328;2022-08-18T14:01:38;38.00;92.20
25716;DHT22;13573;50.936;4.328;2022-08-18T14:04:06;37.50;93.20
25716;DHT22;13573;50.936;4.328;2022-08-18T14:06:33;37.50;92.50
25716;DHT22;13573;50.936;4.328;2022-08-18T14:08:59;37.60;92.10
25716;DHT22;13573;50.936;4.328;2022-08-18T14:11:28;37.90;91.70
25716;DHT22;13573;50.936;4.328;2022-08-18T14:13:55;37.70;90.80
25716;DHT22;13573;50.936;4.328;2022-08-18T14:16:24;39.50;91.40
25716;DHT22;13573;50.936;4.328;2022-08-18T14:18:51;38.20;90.80
25716;DHT22;13573;50.936;4.328;2022-08-18T14:21:23;36.60;91.90
25716;DHT22;13573;50.936;4.328;2022-08-18T14:23:56;36.30;91.30
25716;DHT22;13573;50.936;4.328;2022-08-18T14:26:28;36.30;91.40
25716;DHT22;13573;50.936;4.328;2022-08-18T14:29:01;36.10;92.20
25716;DHT22;13573;50.936;4.328;2022-08-18T14:31:28;36.90;91.20
25716;DHT22;13573;50.936;4.328;2022-08-18T14:33:56;37.30;90.70
25716;DHT22;13573;50.936;4.328;2022-08-18T14:36:23;37.40;89.90
25716;DHT22;13573;50.936;4.328;2022-08-18T14:38:50;36.40;90.50
25716;DHT22;13573;50.936;4.328;2022-08-18T14:41:17;36.30;91.50
25716;DHT22;13573;50.936;4.328;2022-08-18T14:43:44;36.30;90.70
25716;DHT22;13573;50.936;4.328;2022-08-18T14:46:11;35.80;91.70
25716;DHT22;13573;50.936;4.328;2022-08-18T14:48:39;35.50;92.60
25716;DHT22;13573;50.936;4.328;2022-08-18T14:51:07;35.70;91.70
25716;DHT22;13573;50.936;4.328;2022-08-18T14:53:35;33.30;94.20
25716;DHT22;13573;50.936;4.328;2022-08-18T14:56:03;34.20;92.90
25716;DHT22;13573;50.936;4.328;2022-08-18T14:58:31;33.20;94.80
25716;DHT22;13573;50.936;4.328;2022-08-18T15:01:01;33.80;93.10
25716;DHT22;13573;50.936;4.328;2022-08-18T15:03:30;33.30;95.10
25716;DHT22;13573;50.936;4.328;2022-08-18T15:05:58;32.70;95.50
25716;DHT22;13573;50.936;4.328;2022-08-18T15:08:25;33.20;93.80
25716;DHT22;13573;50.936;4.328;2022-08-18T15:10:52;32.60;94.00
25716;DHT22;13573;50.936;4.328;2022-08-18T15:13:19;32.20;95.80
25716;DHT22;13573;50.936;4.328;2022-08-18T15:15:46;32.60;94.00
25716;DHT22;13573;50.936;4.328;2022-08-18T15:18:13;32.90;93.60
25716;DHT22;13573;50.936;4.328;2022-08-18T15:20:40;32.90;93.20
25716;DHT22;13573;50.936;4.328;2022-08-18T15:23:12;32.00;95.80
25716;DHT22;13573;50.936;4.328;2022-08-18T15:25:46;32.20;95.50
25716;DHT22;13573;50.936;4.328;2022-08-18T15:28:20;32.50;93.60
25716;DHT22;13573;50.936;4.328;2022-08-18T15:30:49;32.30;97.10
25716;DHT22;13573;50.936;4.328;2022-08-18T15:33:17;31.60;96.10
25716;DHT22;13573;50.936;4.328;2022-08-18T15:35:46;31.90;93.90
25716;DHT22;13573;50.936;4.328;2022-08-18T15:38:16;31.70;94.20
25716;DHT22;13573;50.936;4.328;2022-08-18T15:40:56;30.20;96.60
25716;DHT22;13573;50.936;4.328;2022-08-18T15:43:25;31.30;94.90
25716;DHT22;13573;50.936;4.328;2022-08-18T15:45:52;31.20;95.40
25716;DHT22;13573;50.936;4.328;2022-08-18T15:48:21;31.40;94.90
25716;DHT22;13573;50.936;4.328;2022-08-18T15:50:49;31.30;95.00
25716;DHT22;13573;50.936;4.328;2022-08-18T15:53:20;31.40;97.50
25716;DHT22;13573;50.936;4.328;2022-08-18T15:55:47;31.40;95.00
25716;DHT22;13573;50.936;4.328;2022-08-18T15:58:13;31.30;95.20
25716;DHT22;13573;50.936;4.328;2022-08-18T16:00:43;31.30;95.10
25716;DHT22;13573;50.936;4.328;2022-08-18T16:03:11;30.80;97.30
25716;DHT22;13573;50.936;4.328;2022-08-18T16:05:45;30.70;96.70
25716;DHT22;13573;50.936;4.328;2022-08-18T16:08:09;31.10;94.80
25716;DHT22;13573;50.936;4.328;2022-08-18T16:10:38;30.90;95.40
25716;DHT22;13573;50.936;4.328;2022-08-18T16:13:06;30.50;98.20
25716;DHT22;13573;50.936;4.328;2022-08-18T16:15:36;31.00;98.40
25716;DHT22;13573;50.936;4.328;2022-08-18T16:18:04;30.80;95.90
25716;DHT22;13573;50.936;4.328;2022-08-18T16:20:31;31.20;98.10
25716;DHT22;13573;50.936;4.328;2022-08-18T16:22:59;30.90;98.00
25716;DHT22;13573;50.936;4.328;2022-08-18T16:25:26;30.40;97.80
25716;DHT22;13573;50.936;4.328;2022-08-18T16:27:54;30.40;97.80
25716;DHT22;13573;50.936;4.328;2022-08-18T16:30:24;30.70;97.80
25716;DHT22;13573;50.936;4.328;2022-08-18T16:32:51;30.60;98.30
25716;DHT22;13573;50.936;4.328;2022-08-18T16:35:18;30.20;98.60
25716;DHT22;13573;50.936;4.328;2022-08-18T16:37:46;30.10;96.10
25716;DHT22;13573;50.936;4.328;2022-08-18T16:40:16;30.10;99.00
25716;DHT22;13573;50.936;4.328;2022-08-18T16:42:44;29.90;99.00
25716;DHT22;13573;50.936;4.328;2022-08-18T16:45:12;30.40;99.20
25716;DHT22;13573;50.936;4.328;2022-08-18T16:47:39;30.10;99.10
25716;DHT22;13573;50.936;4.328;2022-08-18T16:50:10;29.80;99.30
25716;DHT22;13573;50.936;4.328;2022-08-18T16:52:38;29.90;97.00
25716;DHT22;13573;50.936;4.328;2022-08-18T16:55:07;29.90;99.40